sensor_id;sensor_type;location;lat;lon;timestamp;pressure;altitude;pressure_sealevel;temperature;humidity
8451;BME280;4262;50.980;13.892;2024-01-27T00:00:40;86630.28;;;-142.97;49.70
8451;BME280;4262;50.980;13.892;2024-01-27T00:03:07;86687.44;;;-142.97;49.81
8451;BME280;4262;50.980;13.892;2024-01-27T00:05:34;86679.56;;;-142.97;49.87
8451;BME280;4262;50.980;13.892;2024-01-27T00:08:01;86640.16;;;-142.97;49.23
8451;BME280;4262;50.980;13.892;2024-01-27T00:10:29;86655.91;;;-142.97;49.29
8451;BME280;4262;50.980;13.892;2024-01-27T00:12:56;86620.44;;;-142.97;48.95
8451;BME280;4262;50.980;13.892;2024-01-27T00:15:23;86667.72;;;-142.97;48.62
8451;BME280;4262;50.980;13.892;2024-01-27T00:17:49;86659.84;;;-142.97;48.61
8451;BME280;4262;50.980;13.892;2024-01-27T00:20:16;86685.47;;;-142.97;48.95
8451;BME280;4262;50.980;13.892;2024-01-27T00:22:43;86644.09;;;-142.97;48.80
8451;BME280;4262;50.980;13.892;2024-01-27T00:25:10;86659.84;;;-142.97;48.79
8451;BME280;4262;50.980;13.892;2024-01-27T00:27:38;86797.78;;;-142.97;49.41
8451;BME280;4262;50.980;13.892;2024-01-27T00:30:06;86644.09;;;-142.97;49.48
8451;BME280;4262;50.980;13.892;2024-01-27T00:32:33;86612.56;;;-142.97;48.65
8451;BME280;4262;50.980;13.892;2024-01-27T00:35:00;86634.22;;;-142.97;48.73
8451;BME280;4262;50.980;13.892;2024-01-27T00:37:27;86669.69;;;-142.97;49.36
8451;BME280;4262;50.980;13.892;2024-01-27T00:39:54;86677.59;;;-142.97;49.58
8451;BME280;4262;50.980;13.892;2024-01-27T00:42:21;86628.31;;;-142.97;48.64
8451;BME280;4262;50.980;13.892;2024-01-27T00:44:50;86693.34;;;-142.97;49.41
8451;BME280;4262;50.980;13.892;2024-01-27T00:47:17;86644.09;;;-142.97;49.23
8451;BME280;4262;50.980;13.892;2024-01-27T00:49:44;86707.16;;;-142.97;49.76
8451;BME280;4262;50.980;13.892;2024-01-27T00:52:11;86718.97;;;-142.97;49.66
8451;BME280;4262;50.980;13.892;2024-01-27T00:54:38;86724.88;;;-142.97;50.28
8451;BME280;4262;50.980;13.892;2024-01-27T00:57:05;86693.34;;;-142.97;50.23
8451;BME280;4262;50.980;13.892;2024-01-27T00:59:32;86726.84;;;-142.97;50.34
8451;BME280;4262;50.980;13.892;2024-01-27T01:02:00;86728.81;;;-142.97;50.23
8451;BME280;4262;50.980;13.892;2024-01-27T01:04:26;86693.34;;;-142.97;50.79
8451;BME280;4262;50.980;13.892;2024-01-27T01:06:52;86693.34;;;-142.97;50.47
8451;BME280;4262;50.980;13.892;2024-01-27T01:09:19;86713.06;;;-142.97;50.51
8451;BME280;4262;50.980;13.892;2024-01-27T01:11:46;86748.53;;;-142.97;50.71
8451;BME280;4262;50.980;13.892;2024-01-27T01:14:13;86699.25;;;-142.97;50.21
8451;BME280;4262;50.980;13.892;2024-01-27T01:16:40;86659.84;;;-142.97;49.43
8451;BME280;4262;50.980;13.892;2024-01-27T01:19:08;86693.34;;;-142.97;49.58
8451;BME280;4262;50.980;13.892;2024-01-27T01:21:35;86683.50;;;-142.97;49.73
8451;BME280;4262;50.980;13.892;2024-01-27T01:24:01;86726.84;;;-142.97;50.04
8451;BME280;4262;50.980;13.892;2024-01-27T01:26:28;86713.06;;;-142.97;50.75
8451;BME280;4262;50.980;13.892;2024-01-27T01:28:55;86707.16;;;-142.97;50.22
8451;BME280;4262;50.980;13.892;2024-01-27T01:31:22;86695.31;;;-142.97;49.87
8451;BME280;4262;50.980;13.892;2024-01-27T01:33:49;86667.72;;;-142.97;49.87
8451;BME280;4262;50.980;13.892;2024-01-27T01:36:17;86738.66;;;-142.97;50.81
8451;BME280;4262;50.980;13.892;2024-01-27T01:38:44;86715.03;;;-142.97;50.78
8451;BME280;4262;50.980;13.892;2024-01-27T01:41:11;86754.44;;;-142.97;50.92
8451;BME280;4262;50.980;13.892;2024-01-27T01:43:38;86717.00;;;-142.97;50.72
8451;BME280;4262;50.980;13.892;2024-01-27T01:46:05;86703.19;;;-142.97;50.50
8451;BME280;4262;50.980;13.892;2024-01-27T01:48:32;86740.63;;;-142.97;50.87
8451;BME280;4262;50.980;13.892;2024-01-27T01:51:00;86724.88;;;-142.97;50.75
8451;BME280;4262;50.980;13.892;2024-01-27T01:53:28;86784.00;;;-142.97;51.22
8451;BME280;4262;50.980;13.892;2024-01-27T01:55:55;86724.88;;;-142.97;50.71
8451;BME280;4262;50.980;13.892;2024-01-27T01:58:22;86740.63;;;-142.97;51.03
8451;BME280;4262;50.980;13.892;2024-01-27T02:00:49;86734.72;;;-142.97;50.54
8451;BME280;4262;50.980;13.892;2024-01-27T02:03:16;86791.88;;;-142.97;50.80
8451;BME280;4262;50.980;13.892;2024-01-27T02:05:43;86758.38;;;-142.97;50.18
8451;BME280;4262;50.980;13.892;2024-01-27T02:08:09;86713.06;;;-142.97;49.61
8451;BME280;4262;50.980;13.892;2024-01-27T02:10:37;86754.44;;;-142.97;49.95
8451;BME280;4262;50.980;13.892;2024-01-27T02:13:19;86738.66;;;-142.97;49.28
8451;BME280;4262;50.980;13.892;2024-01-27T02:15:47;86738.66;;;-142.97;49.71
8451;BME280;4262;50.980;13.892;2024-01-27T02:18:14;86866.75;;;-142.97;49.57
8451;BME280;4262;50.980;13.892;2024-01-27T02:20:41;86724.88;;;-142.97;49.73
8451;BME280;4262;50.980;13.892;2024-01-27T02:23:08;86718.97;;;-142.97;49.59
8451;BME280;4262;50.980;13.892;2024-01-27T02:25:36;86720.94;;;-142.97;49.23
8451;BME280;4262;50.980;13.892;2024-01-27T02:28:04;86728.81;;;-142.97;48.89
8451;BME280;4262;50.980;13.892;2024-01-27T02:30:31;86715.03;;;-142.97;49.24
8451;BME280;4262;50.980;13.892;2024-01-27T02:32:58;86297.28;;;-142.97;49.38
8451;BME280;4262;50.980;13.892;2024-01-27T02:35:25;86754.44;;;-142.97;49.36
8451;BME280;4262;50.980;13.892;2024-01-27T02:37:51;86736.69;;;-142.97;49.36
8451;BME280;4262;50.980;13.892;2024-01-27T02:40:18;86744.59;;;-142.97;48.83
8451;BME280;4262;50.980;13.892;2024-01-27T02:42:46;86722.91;;;-142.97;48.92
8451;BME280;4262;50.980;13.892;2024-01-27T02:45:13;86728.81;;;-142.97;48.81
8451;BME280;4262;50.980;13.892;2024-01-27T02:47:40;86760.34;;;-142.97;49.07
8451;BME280;4262;50.980;13.892;2024-01-27T02:50:08;86738.66;;;-142.97;48.65
8451;BME280;4262;50.980;13.892;2024-01-27T02:52:34;86681.53;;;-142.97;49.01
8451;BME280;4262;50.980;13.892;2024-01-27T02:55:02;86519.94;;;-142.97;49.09
8451;BME280;4262;50.980;13.892;2024-01-27T02:57:28;86717.00;;;-142.97;48.75
8451;BME280;4262;50.980;13.892;2024-01-27T02:59:56;86752.47;;;-142.97;48.95
8451;BME280;4262;50.980;13.892;2024-01-27T03:02:23;86904.19;;;-142.97;49.21
8451;BME280;4262;50.980;13.892;2024-01-27T03:04:50;86778.09;;;-142.97;49.25
8451;BME280;4262;50.980;13.892;2024-01-27T03:07:16;86756.41;;;-142.97;49.02
8451;BME280;4262;50.980;13.892;2024-01-27T03:09:43;86754.44;;;-142.97;49.07
8451;BME280;4262;50.980;13.892;2024-01-27T03:12:10;86776.13;;;-142.97;48.44
8451;BME280;4262;50.980;13.892;2024-01-27T03:14:58;86705.16;;;-142.97;48.39
8451;BME280;4262;50.980;13.892;2024-01-27T03:17:25;86750.50;;;-142.97;48.64
8451;BME280;4262;50.980;13.892;2024-01-27T03:19:52;86715.03;;;-142.97;48.27
8451;BME280;4262;50.980;13.892;2024-01-27T03:22:18;86768.22;;;-142.97;48.68
8451;BME280;4262;50.980;13.892;2024-01-27T03:24:45;86724.88;;;-142.97;48.20
8451;BME280;4262;50.980;13.892;2024-01-27T03:27:12;86772.16;;;-142.97;48.57
8451;BME280;4262;50.980;13.892;2024-01-27T03:29:39;86738.66;;;-142.97;48.59
8451;BME280;4262;50.980;13.892;2024-01-27T03:32:07;86811.59;;;-142.97;48.32
8451;BME280;4262;50.980;13.892;2024-01-27T03:34:34;86738.66;;;-142.97;47.81
8451;BME280;4262;50.980;13.892;2024-01-27T03:37:01;86752.47;;;-142.97;47.93
8451;BME280;4262;50.980;13.892;2024-01-27T03:39:27;86736.69;;;-142.97;47.84
8451;BME280;4262;50.980;13.892;2024-01-27T03:41:54;86722.91;;;-142.97;47.64
8451;BME280;4262;50.980;13.892;2024-01-27T03:44:21;86740.63;;;-142.97;47.60
8451;BME280;4262;50.980;13.892;2024-01-27T03:46:48;86717.00;;;-142.97;47.39
8451;BME280;4262;50.980;13.892;2024-01-27T03:49:18;86734.72;;;-142.97;47.81
8451;BME280;4262;50.980;13.892;2024-01-27T03:51:44;86764.28;;;-142.97;47.62
8451;BME280;4262;50.980;13.892;2024-01-27T03:54:11;86715.03;;;-142.97;47.27
8451;BME280;4262;50.980;13.892;2024-01-27T03:56:41;86748.53;;;-142.97;47.79
8451;BME280;4262;50.980;13.892;2024-01-27T03:59:07;86734.72;;;-142.97;47.08
8451;BME280;4262;50.980;13.892;2024-01-27T04:01:37;86728.81;;;-142.97;47.31
8451;BME280;4262;50.980;13.892;2024-01-27T04:04:03;86744.59;;;-142.97;47.13
8451;BME280;4262;50.980;13.892;2024-01-27T04:06:36;86760.34;;;-142.97;46.90
8451;BME280;4262;50.980;13.892;2024-01-27T04:09:04;86722.91;;;-142.97;47.17
8451;BME280;4262;50.980;13.892;2024-01-27T04:11:34;86754.44;;;-142.97;47.34
8451;BME280;4262;50.980;13.892;2024-01-27T04:14:00;86762.31;;;-142.97;47.39
8451;BME280;4262;50.980;13.892;2024-01-27T04:16:27;86734.72;;;-142.97;47.14
8451;BME280;4262;50.980;13.892;2024-01-27T04:18:54;86760.34;;;-142.97;46.70
8451;BME280;4262;50.980;13.892;2024-01-27T04:21:21;86697.28;;;-142.97;46.62
8451;BME280;4262;50.980;13.892;2024-01-27T04:23:49;86732.75;;;-142.97;46.98
8451;BME280;4262;50.980;13.892;2024-01-27T04:26:16;86691.38;;;-142.97;46.17
8451;BME280;4262;50.980;13.892;2024-01-27T04:28:43;86713.06;;;-142.97;46.39
8451;BME280;4262;50.980;13.892;2024-01-27T04:31:10;86740.63;;;-142.97;46.44
8451;BME280;4262;50.980;13.892;2024-01-27T04:33:37;86713.06;;;-142.97;46.12
8451;BME280;4262;50.980;13.892;2024-01-27T04:36:04;86724.88;;;-142.97;46.28
8451;BME280;4262;50.980;13.892;2024-01-27T04:38:32;86728.81;;;-142.97;46.56
8451;BME280;4262;50.980;13.892;2024-01-27T04:41:01;86746.56;;;-142.97;46.41
8451;BME280;4262;50.980;13.892;2024-01-27T04:43:28;86732.75;;;-142.97;46.50
8451;BME280;4262;50.980;13.892;2024-01-27T04:45:54;86752.47;;;-142.97;46.79
8451;BME280;4262;50.980;13.892;2024-01-27T04:48:21;86740.63;;;-142.97;46.83
8451;BME280;4262;50.980;13.892;2024-01-27T04:50:48;86742.63;;;-142.97;47.07
8451;BME280;4262;50.980;13.892;2024-01-27T04:53:16;86770.19;;;-142.97;46.96
8451;BME280;4262;50.980;13.892;2024-01-27T04:55:43;86787.94;;;-142.97;47.48
8451;BME280;4262;50.980;13.892;2024-01-27T04:58:11;86772.16;;;-142.97;47.82
8451;BME280;4262;50.980;13.892;2024-01-27T05:00:38;86827.34;;;-142.97;47.77
8451;BME280;4262;50.980;13.892;2024-01-27T05:03:04;86772.16;;;-142.97;47.95
8451;BME280;4262;50.980;13.892;2024-01-27T05:05:34;86809.63;;;-142.97;48.10
8451;BME280;4262;50.980;13.892;2024-01-27T05:08:00;86764.28;;;-142.97;48.42
8451;BME280;4262;50.980;13.892;2024-01-27T05:10:27;86752.47;;;-142.97;47.75
8451;BME280;4262;50.980;13.892;2024-01-27T05:12:54;86797.78;;;-142.97;48.08
8451;BME280;4262;50.980;13.892;2024-01-27T05:15:23;86780.06;;;-142.97;47.77
8451;BME280;4262;50.980;13.892;2024-01-27T05:17:50;86829.31;;;-142.97;48.15
8451;BME280;4262;50.980;13.892;2024-01-27T05:20:17;86742.63;;;-142.97;47.93
8451;BME280;4262;50.980;13.892;2024-01-27T05:22:44;86728.81;;;-142.97;47.57
8451;BME280;4262;50.980;13.892;2024-01-27T05:25:11;86764.28;;;-142.97;47.43
8451;BME280;4262;50.980;13.892;2024-01-27T05:27:38;86720.94;;;-142.97;46.83
8451;BME280;4262;50.980;13.892;2024-01-27T05:30:06;86734.72;;;-142.97;46.87
8451;BME280;4262;50.980;13.892;2024-01-27T05:32:34;86819.47;;;-142.97;47.63
8451;BME280;4262;50.980;13.892;2024-01-27T05:35:00;86807.63;;;-142.97;47.09
8451;BME280;4262;50.980;13.892;2024-01-27T05:37:27;86772.16;;;-142.97;47.02
8451;BME280;4262;50.980;13.892;2024-01-27T05:39:54;86784.00;;;-142.97;47.52
8451;BME280;4262;50.980;13.892;2024-01-27T05:42:21;86718.97;;;-142.97;47.45
8451;BME280;4262;50.980;13.892;2024-01-27T05:44:48;86756.41;;;-142.97;47.52
8451;BME280;4262;50.980;13.892;2024-01-27T05:47:15;86724.88;;;-142.97;47.29
8451;BME280;4262;50.980;13.892;2024-01-27T05:49:43;86742.63;;;-142.97;46.90
8451;BME280;4262;50.980;13.892;2024-01-27T05:52:10;86744.59;;;-142.97;47.22
8451;BME280;4262;50.980;13.892;2024-01-27T05:54:39;86760.34;;;-142.97;47.61
8451;BME280;4262;50.980;13.892;2024-01-27T05:57:06;86709.13;;;-142.97;47.06
8451;BME280;4262;50.980;13.892;2024-01-27T05:59:33;86748.53;;;-142.97;46.95
8451;BME280;4262;50.980;13.892;2024-01-27T06:01:59;86768.22;;;-142.97;47.06
8451;BME280;4262;50.980;13.892;2024-01-27T06:04:27;86679.56;;;-142.97;46.74
8451;BME280;4262;50.980;13.892;2024-01-27T06:06:55;86724.88;;;-142.97;46.66
8451;BME280;4262;50.980;13.892;2024-01-27T06:09:22;86711.09;;;-142.97;46.57
8451;BME280;4262;50.980;13.892;2024-01-27T06:11:48;86758.38;;;-142.97;46.85
8451;BME280;4262;50.980;13.892;2024-01-27T06:14:15;86722.91;;;-142.97;47.14
8451;BME280;4262;50.980;13.892;2024-01-27T06:16:41;86718.97;;;-142.97;47.02
8451;BME280;4262;50.980;13.892;2024-01-27T06:19:08;86760.34;;;-142.97;47.39
8451;BME280;4262;50.980;13.892;2024-01-27T06:21:35;86758.38;;;-142.97;47.48
8451;BME280;4262;50.980;13.892;2024-01-27T06:24:04;86803.69;;;-142.97;47.48
8451;BME280;4262;50.980;13.892;2024-01-27T06:26:31;86695.31;;;-142.97;47.02
8451;BME280;4262;50.980;13.892;2024-01-27T06:28:57;86730.78;;;-142.97;47.17
8451;BME280;4262;50.980;13.892;2024-01-27T06:31:25;86697.28;;;-142.97;46.83
8451;BME280;4262;50.980;13.892;2024-01-27T06:33:52;86722.91;;;-142.97;46.94
8451;BME280;4262;50.980;13.892;2024-01-27T06:36:19;86744.59;;;-142.97;47.49
8451;BME280;4262;50.980;13.892;2024-01-27T06:38:48;86718.97;;;-142.97;47.51
8451;BME280;4262;50.980;13.892;2024-01-27T06:41:16;86705.16;;;-142.97;47.40
8451;BME280;4262;50.980;13.892;2024-01-27T06:43:43;86728.81;;;-142.97;47.23
8451;BME280;4262;50.980;13.892;2024-01-27T06:46:10;86722.91;;;-142.97;46.80
8451;BME280;4262;50.980;13.892;2024-01-27T06:48:37;86709.13;;;-142.97;47.42
8451;BME280;4262;50.980;13.892;2024-01-27T06:51:03;86705.16;;;-142.97;47.10
8451;BME280;4262;50.980;13.892;2024-01-27T06:53:30;86718.97;;;-142.97;47.06
8451;BME280;4262;50.980;13.892;2024-01-27T06:55:57;86817.50;;;-142.97;47.01
8451;BME280;4262;50.980;13.892;2024-01-27T06:58:25;86697.28;;;-142.97;47.21
8451;BME280;4262;50.980;13.892;2024-01-27T07:00:52;86732.75;;;-142.97;47.58
8451;BME280;4262;50.980;13.892;2024-01-27T07:03:19;86732.75;;;-142.97;47.52
8451;BME280;4262;50.980;13.892;2024-01-27T07:05:46;86789.91;;;-142.97;48.17
8451;BME280;4262;50.980;13.892;2024-01-27T07:08:13;86724.88;;;-142.97;47.56
8451;BME280;4262;50.980;13.892;2024-01-27T07:10:39;86722.91;;;-142.97;47.03
8451;BME280;4262;50.980;13.892;2024-01-27T07:13:06;86732.75;;;-142.97;47.71
8451;BME280;4262;50.980;13.892;2024-01-27T07:15:34;86772.16;;;-142.97;47.63
8451;BME280;4262;50.980;13.892;2024-01-27T07:18:03;86722.91;;;-142.97;47.57
8451;BME280;4262;50.980;13.892;2024-01-27T07:20:31;86728.81;;;-142.97;47.92
8451;BME280;4262;50.980;13.892;2024-01-27T07:22:57;86720.94;;;-142.97;47.37
8451;BME280;4262;50.980;13.892;2024-01-27T07:25:24;86711.09;;;-142.97;47.60
8451;BME280;4262;50.980;13.892;2024-01-27T07:27:53;86724.88;;;-142.97;47.57
8451;BME280;4262;50.980;13.892;2024-01-27T07:30:20;86697.28;;;-142.97;47.07
8451;BME280;4262;50.980;13.892;2024-01-27T07:32:49;86687.44;;;-142.97;46.75
8451;BME280;4262;50.980;13.892;2024-01-27T07:35:16;86655.91;;;-142.97;47.00
8451;BME280;4262;50.980;13.892;2024-01-27T07:37:42;86650.00;;;-142.97;46.90
8451;BME280;4262;50.980;13.892;2024-01-27T07:40:10;86628.31;;;-142.97;46.64
8451;BME280;4262;50.980;13.892;2024-01-27T07:42:37;86581.03;;;-142.97;46.36
8451;BME280;4262;50.980;13.892;2024-01-27T07:45:05;86829.31;;;-142.97;46.78
8451;BME280;4262;50.980;13.892;2024-01-27T07:47:32;86640.16;;;-142.97;46.75
8451;BME280;4262;50.980;13.892;2024-01-27T07:50:00;86614.53;;;-142.97;46.95
8451;BME280;4262;50.980;13.892;2024-01-27T07:52:27;86724.88;;;-142.97;47.74
8451;BME280;4262;50.980;13.892;2024-01-27T07:54:53;86722.91;;;-142.97;47.89
8451;BME280;4262;50.980;13.892;2024-01-27T07:57:21;86661.81;;;-142.97;47.40
8451;BME280;4262;50.980;13.892;2024-01-27T07:59:48;86667.72;;;-142.97;47.37
8451;BME280;4262;50.980;13.892;2024-01-27T08:02:15;86724.88;;;-142.97;47.95
8451;BME280;4262;50.980;13.892;2024-01-27T08:04:42;86720.94;;;-142.97;47.77
8451;BME280;4262;50.980;13.892;2024-01-27T08:07:10;86673.66;;;-142.97;47.43
8451;BME280;4262;50.980;13.892;2024-01-27T08:09:40;86801.72;;;-142.97;47.48
8451;BME280;4262;50.980;13.892;2024-01-27T08:12:07;86638.19;;;-142.97;47.43
8451;BME280;4262;50.980;13.892;2024-01-27T08:14:34;86642.13;;;-142.97;47.20
8451;BME280;4262;50.980;13.892;2024-01-27T08:17:01;86679.56;;;-142.97;47.67
8451;BME280;4262;50.980;13.892;2024-01-27T08:19:28;86699.25;;;-142.97;47.81
8451;BME280;4262;50.980;13.892;2024-01-27T08:21:55;86693.34;;;-142.97;48.01
8451;BME280;4262;50.980;13.892;2024-01-27T08:24:23;86648.03;;;-142.97;47.31
8451;BME280;4262;50.980;13.892;2024-01-27T08:26:50;86651.97;;;-142.97;47.35
8451;BME280;4262;50.980;13.892;2024-01-27T08:29:17;86651.97;;;-142.97;47.55
8451;BME280;4262;50.980;13.892;2024-01-27T08:31:44;86734.72;;;-142.97;48.44
8451;BME280;4262;50.980;13.892;2024-01-27T08:34:11;86705.16;;;-142.97;47.79
8451;BME280;4262;50.980;13.892;2024-01-27T08:36:38;86640.16;;;-142.97;47.93
8451;BME280;4262;50.980;13.892;2024-01-27T08:39:06;86551.47;;;-142.97;47.98
8451;BME280;4262;50.980;13.892;2024-01-27T08:41:35;86740.63;;;-142.97;48.43
8451;BME280;4262;50.980;13.892;2024-01-27T08:44:02;86630.28;;;-142.97;48.18
8451;BME280;4262;50.980;13.892;2024-01-27T08:46:29;86679.56;;;-142.97;47.84
8451;BME280;4262;50.980;13.892;2024-01-27T08:48:56;86594.81;;;-142.97;47.62
8451;BME280;4262;50.980;13.892;2024-01-27T08:51:23;86669.69;;;-142.97;47.78
8451;BME280;4262;50.980;13.892;2024-01-27T08:53:50;86634.22;;;-142.97;47.56
8451;BME280;4262;50.980;13.892;2024-01-27T08:56:17;86648.03;;;-142.97;47.55
8451;BME280;4262;50.980;13.892;2024-01-27T08:58:46;86657.88;;;-142.97;47.70
8451;BME280;4262;50.980;13.892;2024-01-27T09:01:13;86606.66;;;-142.97;48.08
8451;BME280;4262;50.980;13.892;2024-01-27T09:03:40;86632.25;;;-142.97;47.69
8451;BME280;4262;50.980;13.892;2024-01-27T09:06:07;86657.88;;;-142.97;47.94
8451;BME280;4262;50.980;13.892;2024-01-27T09:08:34;86565.25;;;-142.97;47.40
8451;BME280;4262;50.980;13.892;2024-01-27T09:11:02;86661.81;;;-142.97;47.71
8451;BME280;4262;50.980;13.892;2024-01-27T09:13:29;86642.13;;;-142.97;47.92
8451;BME280;4262;50.980;13.892;2024-01-27T09:15:57;86642.13;;;-142.97;47.72
8451;BME280;4262;50.980;13.892;2024-01-27T09:18:24;86659.84;;;-142.97;48.34
8451;BME280;4262;50.980;13.892;2024-01-27T09:20:51;86650.00;;;-142.97;48.00
8451;BME280;4262;50.980;13.892;2024-01-27T09:23:18;86685.47;;;-142.97;48.22
8451;BME280;4262;50.980;13.892;2024-01-27T09:25:45;86653.94;;;-142.97;48.21
8451;BME280;4262;50.980;13.892;2024-01-27T09:28:12;86650.00;;;-142.97;47.88
8451;BME280;4262;50.980;13.892;2024-01-27T09:30:39;86651.97;;;-142.97;48.15
8451;BME280;4262;50.980;13.892;2024-01-27T09:33:07;86661.81;;;-142.97;47.96
8451;BME280;4262;50.980;13.892;2024-01-27T09:35:35;86644.09;;;-142.97;47.93
8451;BME280;4262;50.980;13.892;2024-01-27T09:38:01;86636.22;;;-142.97;48.22
8451;BME280;4262;50.980;13.892;2024-01-27T09:40:28;86679.56;;;-142.97;48.78
8451;BME280;4262;50.980;13.892;2024-01-27T09:42:59;86622.41;;;-142.97;47.96
8451;BME280;4262;50.980;13.892;2024-01-27T09:45:26;86626.34;;;-142.97;47.96
8451;BME280;4262;50.980;13.892;2024-01-27T09:47:56;86606.66;;;-142.97;47.87
8451;BME280;4262;50.980;13.892;2024-01-27T09:50:24;86620.44;;;-142.97;47.61
8451;BME280;4262;50.980;13.892;2024-01-27T09:52:51;86553.44;;;-142.97;47.36
8451;BME280;4262;50.980;13.892;2024-01-27T09:55:18;86561.31;;;-142.97;47.06
8451;BME280;4262;50.980;13.892;2024-01-27T09:57:46;86535.72;;;-142.97;46.97
8451;BME280;4262;50.980;13.892;2024-01-27T10:00:13;86559.34;;;-142.97;46.95
8451;BME280;4262;50.980;13.892;2024-01-27T10:02:43;86583.00;;;-142.97;47.34
8451;BME280;4262;50.980;13.892;2024-01-27T10:05:12;86531.78;;;-142.97;46.63
8451;BME280;4262;50.980;13.892;2024-01-27T10:07:41;86533.75;;;-142.97;46.92
8451;BME280;4262;50.980;13.892;2024-01-27T10:10:08;86553.44;;;-142.97;47.46
8451;BME280;4262;50.980;13.892;2024-01-27T10:12:39;86588.91;;;-142.97;47.14
8451;BME280;4262;50.980;13.892;2024-01-27T10:15:07;86583.00;;;-142.97;47.22
8451;BME280;4262;50.980;13.892;2024-01-27T10:17:33;86543.59;;;-142.97;46.95
8451;BME280;4262;50.980;13.892;2024-01-27T10:20:04;86494.34;;;-142.97;46.79
8451;BME280;4262;50.980;13.892;2024-01-27T10:22:37;86516.00;;;-142.97;46.99
8451;BME280;4262;50.980;13.892;2024-01-27T10:25:06;86549.50;;;-142.97;47.12
8451;BME280;4262;50.980;13.892;2024-01-27T10:27:34;86581.03;;;-142.97;47.74
8451;BME280;4262;50.980;13.892;2024-01-27T10:30:01;86551.47;;;-142.97;47.56
8451;BME280;4262;50.980;13.892;2024-01-27T10:32:28;86488.41;;;-142.97;46.98
8451;BME280;4262;50.980;13.892;2024-01-27T10:35:02;86504.19;;;-142.97;46.78
8451;BME280;4262;50.980;13.892;2024-01-27T10:37:29;86567.25;;;-142.97;47.29
8451;BME280;4262;50.980;13.892;2024-01-27T10:40:02;86527.84;;;-142.97;47.23
8451;BME280;4262;50.980;13.892;2024-01-27T10:42:31;86462.81;;;-142.97;46.25
8451;BME280;4262;50.980;13.892;2024-01-27T10:44:58;86437.19;;;-142.97;45.92
8451;BME280;4262;50.980;13.892;2024-01-27T10:47:27;86551.47;;;-142.97;45.86
8451;BME280;4262;50.980;13.892;2024-01-27T10:49:55;86537.69;;;-142.97;47.23
8451;BME280;4262;50.980;13.892;2024-01-27T10:52:24;86557.38;;;-142.97;47.14
8451;BME280;4262;50.980;13.892;2024-01-27T10:54:58;86516.00;;;-142.97;47.16
8451;BME280;4262;50.980;13.892;2024-01-27T10:57:26;86502.22;;;-142.97;47.09
8451;BME280;4262;50.980;13.892;2024-01-27T10:59:56;86494.34;;;-142.97;46.63
8451;BME280;4262;50.980;13.892;2024-01-27T11:02:23;86480.53;;;-142.97;47.05
8451;BME280;4262;50.980;13.892;2024-01-27T11:04:51;86445.06;;;-142.97;46.70
8451;BME280;4262;50.980;13.892;2024-01-27T11:07:20;86500.25;;;-142.97;46.65
8451;BME280;4262;50.980;13.892;2024-01-27T11:09:49;86450.97;;;-142.97;46.05
8451;BME280;4262;50.980;13.892;2024-01-27T11:12:17;86480.53;;;-142.97;46.32
8451;BME280;4262;50.980;13.892;2024-01-27T11:14:46;86525.84;;;-142.97;47.09
8451;BME280;4262;50.980;13.892;2024-01-27T11:17:14;86447.03;;;-142.97;46.70
8451;BME280;4262;50.980;13.892;2024-01-27T11:19:41;86494.34;;;-142.97;45.81
8451;BME280;4262;50.980;13.892;2024-01-27T11:22:23;86470.69;;;-142.97;46.83
8451;BME280;4262;50.980;13.892;2024-01-27T11:24:51;86533.75;;;-142.97;46.22
8451;BME280;4262;50.980;13.892;2024-01-27T11:27:18;86462.81;;;-142.97;46.85
8451;BME280;4262;50.980;13.892;2024-01-27T11:29:48;86466.75;;;-142.97;46.55
8451;BME280;4262;50.980;13.892;2024-01-27T11:32:16;86395.81;;;-142.97;45.65
8451;BME280;4262;50.980;13.892;2024-01-27T11:34:43;86478.56;;;-142.97;46.33
8451;BME280;4262;50.980;13.892;2024-01-27T11:37:12;86478.56;;;-142.97;46.64
8451;BME280;4262;50.980;13.892;2024-01-27T11:39:39;86474.63;;;-142.97;46.96
8451;BME280;4262;50.980;13.892;2024-01-27T11:42:07;86488.41;;;-142.97;46.46
8451;BME280;4262;50.980;13.892;2024-01-27T11:44:34;86510.09;;;-142.97;47.45
8451;BME280;4262;50.980;13.892;2024-01-27T11:47:02;86447.03;;;-142.97;46.62
8451;BME280;4262;50.980;13.892;2024-01-27T11:49:30;86417.50;;;-142.97;46.79
8451;BME280;4262;50.980;13.892;2024-01-27T11:51:57;86407.63;;;-142.97;45.84
8451;BME280;4262;50.980;13.892;2024-01-27T11:54:24;86478.56;;;-142.97;46.03
8451;BME280;4262;50.980;13.892;2024-01-27T11:56:51;86472.66;;;-142.97;46.38
8451;BME280;4262;50.980;13.892;2024-01-27T11:59:18;86539.66;;;-142.97;45.64
8451;BME280;4262;50.980;13.892;2024-01-27T12:01:45;86358.38;;;-142.97;45.31
8451;BME280;4262;50.980;13.892;2024-01-27T12:04:11;86342.63;;;-142.97;45.47
8451;BME280;4262;50.980;13.892;2024-01-27T12:06:41;86450.97;;;-142.97;45.71
8451;BME280;4262;50.980;13.892;2024-01-27T12:09:09;86395.81;;;-142.97;45.86
8451;BME280;4262;50.980;13.892;2024-01-27T12:11:38;86458.88;;;-142.97;46.48
8451;BME280;4262;50.980;13.892;2024-01-27T12:14:04;86494.34;;;-142.97;46.66
8451;BME280;4262;50.980;13.892;2024-01-27T12:16:30;86149.53;;;-142.97;46.89
8451;BME280;4262;50.980;13.892;2024-01-27T12:18:57;86490.38;;;-142.97;46.03
8451;BME280;4262;50.980;13.892;2024-01-27T12:21:25;86395.81;;;-142.97;45.56
8451;BME280;4262;50.980;13.892;2024-01-27T12:23:54;86405.66;;;-142.97;45.36
8451;BME280;4262;50.980;13.892;2024-01-27T12:26:21;86385.97;;;-142.97;45.22
8451;BME280;4262;50.980;13.892;2024-01-27T12:28:48;86362.31;;;-142.97;44.87
8451;BME280;4262;50.980;13.892;2024-01-27T12:31:16;85909.16;;;-142.97;44.56
8451;BME280;4262;50.980;13.892;2024-01-27T12:33:50;86082.53;;;-142.97;43.81
8451;BME280;4262;50.980;13.892;2024-01-27T12:36:18;86064.81;;;-142.97;43.85
8451;BME280;4262;50.980;13.892;2024-01-27T12:38:47;85832.34;;;-142.97;43.17
8451;BME280;4262;50.980;13.892;2024-01-27T12:41:15;85467.91;;;-142.97;43.23
8451;BME280;4262;50.980;13.892;2024-01-27T12:43:42;85471.84;;;-142.97;42.26
8451;BME280;4262;50.980;13.892;2024-01-27T12:46:09;85964.34;;;-142.97;41.05
8451;BME280;4262;50.980;13.892;2024-01-27T12:48:36;85863.84;;;-142.97;41.12
8451;BME280;4262;50.980;13.892;2024-01-27T12:51:04;85556.53;;;-142.97;41.90